createdAt,value
2023-04-07T05:00:19.650Z,4.90
2023-04-07T05:05:23.971Z,5.10
2023-04-07T05:10:27.530Z,5.03
2023-04-07T05:15:29.649Z,4.50
2023-04-07T05:20:31.952Z,4.73
2023-04-07T05:25:34.342Z,4.68
2023-04-07T05:30:39.194Z,5.45
2023-04-07T05:35:41.492Z,4.85
2023-04-07T05:40:44.630Z,5.20
2023-04-07T05:45:52.586Z,6.18
2023-04-07T05:55:57.259Z,5.53
2023-04-07T06:01:20.317Z,6.28
2023-04-07T06:06:22.821Z,5.90
2023-04-07T06:11:27.109Z,5.47
2023-04-07T06:16:28.906Z,5.07
2023-04-07T06:21:31.524Z,5.50
2023-04-07T06:26:33.635Z,5.63
2023-04-07T06:31:35.466Z,5.90
2023-04-07T06:36:38.184Z,5.75
2023-04-07T06:41:42.914Z,5.90
2023-04-07T06:46:47.356Z,5.75
2023-04-07T06:51:48.905Z,6.03
2023-04-07T06:56:52.718Z,6.25
2023-04-07T07:01:55.847Z,5.80
2023-04-07T07:06:59.314Z,6.60
2023-04-07T07:12:04.062Z,6.63
2023-04-07T07:17:05.881Z,7.13
2023-04-07T07:22:07.399Z,7.05
2023-04-07T07:27:09.869Z,6.65
2023-04-07T07:32:12.161Z,6.63
2023-04-07T07:37:13.770Z,6.82
2023-04-07T07:42:16.206Z,6.85
2023-04-07T07:47:18.588Z,7.18
2023-04-07T07:52:20.802Z,6.68
2023-04-07T07:57:22.319Z,6.87
2023-04-07T08:02:29.560Z,6.80
2023-04-07T08:07:32.143Z,6.22
2023-04-07T08:12:33.694Z,6.05
2023-04-07T08:17:36.509Z,5.70
2023-04-07T08:22:38.090Z,6.57
2023-04-07T08:27:39.655Z,6.47
2023-04-07T08:32:43.722Z,6.75
2023-04-07T08:37:46.359Z,6.47
2023-04-07T08:42:49.198Z,5.82
2023-04-07T08:47:59.081Z,5.78
2023-04-07T08:53:06.346Z,5.95
2023-04-07T08:58:14.978Z,5.90
2023-04-07T09:03:17.888Z,5.30
2023-04-07T09:13:21.944Z,6.03
2023-04-07T09:18:24.026Z,6.53
2023-04-07T09:23:34.329Z,6.80
2023-04-07T09:28:41.676Z,6.00
2023-04-07T09:33:43.463Z,6.10
2023-04-07T09:38:46.203Z,5.88
2023-04-07T09:43:48.322Z,5.57
2023-04-07T09:49:06.512Z,6.05
2023-04-07T09:54:08.722Z,5.55
2023-04-07T09:59:11.043Z,6.82
2023-04-07T10:04:13.180Z,7.40
2023-04-07T10:09:14.800Z,5.80
2023-04-07T10:14:17.677Z,6.95
2023-04-07T10:19:21.688Z,7.20
2023-04-07T10:24:54.932Z,6.43
2023-04-07T10:29:58.617Z,6.72
2023-04-07T10:35:01.262Z,5.63
2023-04-07T10:40:21.613Z,6.53
2023-04-07T10:45:48.566Z,7.07
2023-04-07T10:51:08.080Z,6.60
2023-04-07T10:56:10.661Z,7.03
2023-04-07T11:01:15.676Z,5.82
2023-04-07T11:06:19.581Z,5.60
2023-04-07T11:11:39.100Z,5.90
2023-04-07T11:16:44.252Z,5.70
2023-04-07T11:21:46.780Z,5.65
2023-04-07T11:26:50.483Z,5.80
2023-04-07T11:31:52.762Z,5.40
2023-04-07T11:36:59.426Z,5.67
2023-04-07T11:42:01.051Z,5.50
2023-04-07T11:47:03.843Z,5.50
2023-04-07T11:52:09.457Z,4.80
2023-04-07T11:57:13.174Z,5.30
2023-04-07T12:02:34.878Z,5.88
2023-04-07T12:07:39.556Z,5.82
2023-04-07T12:12:46.318Z,5.15
2023-04-07T12:17:49.300Z,5.25
2023-04-07T12:22:51.579Z,6.03
2023-04-07T12:27:54.642Z,5.30
2023-04-07T12:32:56.767Z,4.97
2023-04-07T12:37:58.473Z,4.75
2023-04-07T12:43:00.358Z,4.67
2023-04-07T12:48:02.235Z,5.13
2023-04-07T12:53:05.176Z,5.67
2023-04-07T12:58:07.677Z,5.13
2023-04-07T13:03:10.026Z,6.88
2023-04-07T13:08:11.779Z,5.13
2023-04-07T13:13:13.496Z,6.73
2023-04-07T13:18:15.282Z,6.13
2023-04-07T13:23:18.679Z,6.00
2023-04-07T13:28:21.111Z,5.90
2023-04-07T13:33:22.712Z,6.68
2023-04-07T13:38:24.319Z,5.75
2023-04-07T13:43:26.287Z,6.78
2023-04-07T13:48:28.024Z,7.70
2023-04-07T13:53:29.680Z,7.63
2023-04-07T13:58:32.950Z,7.28
2023-04-07T14:03:35.839Z,7.57
2023-04-07T14:08:39.352Z,7.25
2023-04-07T14:13:41.173Z,7.47
2023-04-07T14:18:43.147Z,6.90
2023-04-07T14:23:45.124Z,6.63
2023-04-07T14:28:47.709Z,6.40
2023-04-07T14:38:52.957Z,6.82
2023-04-07T14:43:59.345Z,7.78
2023-04-07T14:49:01.694Z,7.55
2023-04-07T14:54:04.127Z,7.60
2023-04-07T14:59:05.827Z,6.90
2023-04-07T15:04:08.038Z,7.10
2023-04-07T15:09:11.565Z,6.82
2023-04-07T15:14:14.629Z,7.05
2023-04-07T15:19:16.796Z,7.75
2023-04-07T15:24:19.498Z,7.88
2023-04-07T15:29:21.351Z,7.25
2023-04-07T15:34:23.067Z,7.50
2023-04-07T15:39:24.601Z,8.57
2023-04-07T15:44:26.079Z,8.50
2023-04-07T15:49:27.524Z,8.07
2023-04-07T15:54:29.000Z,8.57
2023-04-07T15:59:30.974Z,7.63
2023-04-07T16:04:32.828Z,7.22
2023-04-07T16:09:34.560Z,7.10
2023-04-07T16:14:36.425Z,7.18
2023-04-07T16:19:38.049Z,7.30
2023-04-07T16:24:40.119Z,7.60
2023-04-07T16:29:41.580Z,7.87
2023-04-07T16:34:45.928Z,8.00
2023-04-07T16:39:47.494Z,7.43
2023-04-07T16:44:49.416Z,8.10
2023-04-07T16:49:51.187Z,7.60
2023-04-07T16:54:52.746Z,8.15
2023-04-07T16:59:57.043Z,8.63
2023-04-07T17:04:58.872Z,8.88
2023-04-07T17:10:00.623Z,9.15
2023-04-07T17:15:02.253Z,8.60
2023-04-07T17:20:04.648Z,8.23
2023-04-07T17:25:06.656Z,9.00
2023-04-07T17:30:08.670Z,8.07
2023-04-07T17:35:10.197Z,9.00
2023-04-07T17:40:12.237Z,7.20
2023-04-07T17:45:13.790Z,7.33
2023-04-07T17:50:16.282Z,7.03
2023-04-07T17:55:17.880Z,7.20
2023-04-07T18:00:19.470Z,8.45
2023-04-07T18:05:21.449Z,8.40
2023-04-07T18:10:23.002Z,8.38
2023-04-07T18:15:24.520Z,8.18
2023-04-07T18:20:25.996Z,7.97
2023-04-07T18:25:28.229Z,10.30
2023-04-07T18:30:29.756Z,10.70
2023-04-07T18:35:31.890Z,9.50
2023-04-07T18:40:34.206Z,20.55
2023-04-07T18:45:36.771Z,11.48
2023-04-07T18:50:38.217Z,9.43
2023-04-07T18:55:39.643Z,7.95
2023-04-07T19:00:42.249Z,7.75
2023-04-07T19:05:47.291Z,8.27
2023-04-07T19:10:50.965Z,7.97
2023-04-07T19:15:52.997Z,7.40
2023-04-07T19:20:55.220Z,7.80
2023-04-07T19:25:56.708Z,9.57
2023-04-07T19:30:58.230Z,8.95
2023-04-07T19:35:59.796Z,8.60
2023-04-07T19:41:01.368Z,9.50
2023-04-07T19:46:03.560Z,12.02
2023-04-07T19:51:07.115Z,11.70
2023-04-07T19:56:08.860Z,11.38
2023-04-07T20:01:19.407Z,12.07
2023-04-07T20:06:24.610Z,12.35
2023-04-07T20:11:26.130Z,10.93
2023-04-07T20:16:27.705Z,10.57
2023-04-07T20:21:29.674Z,9.80
2023-04-07T20:26:31.145Z,8.65
2023-04-07T20:31:32.582Z,9.27
2023-04-07T20:36:34.042Z,9.00
2023-04-07T20:41:35.633Z,9.00
2023-04-07T20:46:37.156Z,8.88
2023-04-07T20:51:38.637Z,8.57
2023-04-07T20:56:40.450Z,7.25
2023-04-07T21:01:42.150Z,6.60
2023-04-07T21:06:43.606Z,7.32
2023-04-07T21:11:45.070Z,8.38
2023-04-07T21:16:46.501Z,8.07
2023-04-07T21:21:48.027Z,6.90
2023-04-07T21:26:49.722Z,6.63
2023-04-07T21:31:51.154Z,6.82
2023-04-07T21:36:52.709Z,7.55
2023-04-07T21:41:54.170Z,6.78
2023-04-07T21:46:55.755Z,8.02
2023-04-07T21:51:57.995Z,7.95
2023-04-07T21:57:00.844Z,7.87
